createdAt,value
2023-04-23T00:01:57.460Z,19.33
2023-04-23T00:04:29.056Z,18.47
2023-04-23T00:07:00.239Z,18.57
2023-04-23T00:09:34.915Z,18.27
2023-04-23T00:12:02.602Z,18.97
2023-04-23T00:14:29.882Z,17.90
2023-04-23T00:17:00.118Z,19.07
2023-04-23T00:19:27.230Z,18.67
2023-04-23T00:21:57.967Z,18.47
2023-04-23T00:24:26.052Z,17.87
2023-04-23T00:26:54.091Z,19.43
2023-04-23T00:29:27.055Z,19.10
2023-04-23T00:31:54.311Z,18.87
2023-04-23T00:34:22.387Z,18.27
2023-04-23T00:36:52.445Z,18.57
2023-04-23T00:39:20.681Z,19.00
2023-04-23T00:41:49.203Z,19.43
2023-04-23T00:44:16.640Z,18.57
2023-04-23T00:46:45.222Z,19.70
2023-04-23T00:49:14.522Z,19.00
2023-04-23T00:51:42.483Z,18.30
2023-04-23T00:54:12.732Z,18.17
2023-04-23T00:56:42.977Z,19.00
2023-04-23T00:59:10.117Z,18.77
2023-04-23T01:01:37.492Z,19.70
2023-04-23T01:04:06.070Z,19.43
2023-04-23T01:06:33.750Z,18.60
2023-04-23T01:09:11.152Z,17.07
2023-04-23T01:11:44.192Z,18.63
2023-04-23T01:14:14.386Z,17.50
2023-04-23T01:16:42.679Z,16.07
2023-04-23T01:19:10.912Z,17.10
2023-04-23T01:21:42.692Z,15.73
2023-04-23T01:24:12.013Z,15.13
2023-04-23T01:26:39.728Z,14.97
2023-04-23T01:29:11.461Z,14.50
2023-04-23T01:31:41.254Z,15.30
2023-04-23T01:34:08.665Z,14.13
2023-04-23T01:36:39.235Z,13.60
2023-04-23T01:39:07.417Z,14.10
2023-04-23T01:41:35.905Z,14.13
2023-04-23T01:44:03.018Z,13.87
2023-04-23T01:46:32.178Z,13.03
2023-04-23T01:49:00.220Z,14.80
2023-04-23T01:51:30.922Z,14.43
2023-04-23T01:54:16.980Z,14.80
2023-04-23T01:56:47.129Z,15.50
2023-04-23T01:59:16.150Z,15.80
2023-04-23T02:01:46.965Z,14.63
2023-04-23T02:04:17.091Z,14.63
2023-04-23T02:06:48.309Z,15.53
2023-04-23T02:09:18.413Z,15.00
2023-04-23T02:11:48.490Z,14.63
2023-04-23T02:14:17.638Z,14.10
2023-04-23T02:16:48.165Z,13.00
2023-04-23T02:19:18.319Z,14.10
2023-04-23T02:21:45.775Z,13.67
2023-04-23T02:24:14.788Z,13.60
2023-04-23T02:26:41.792Z,14.23
2023-04-23T02:29:09.809Z,15.27
2023-04-23T02:31:36.880Z,14.37
2023-04-23T02:34:07.019Z,16.03
2023-04-23T02:36:38.422Z,14.93
2023-04-23T02:39:08.522Z,16.03
2023-04-23T02:41:38.712Z,15.93
2023-04-23T02:44:07.749Z,15.33
2023-04-23T02:46:37.393Z,14.97
2023-04-23T02:49:07.589Z,13.50
2023-04-23T02:51:34.714Z,15.10
2023-04-23T02:54:04.160Z,13.23
2023-04-23T02:56:32.313Z,14.27
2023-04-23T02:58:59.609Z,13.93
2023-04-23T03:01:27.220Z,14.07
2023-04-23T03:03:55.880Z,13.23
2023-04-23T03:06:25.059Z,13.87
2023-04-23T03:08:52.059Z,13.47
2023-04-23T03:11:25.079Z,14.10
2023-04-23T03:13:55.244Z,14.33
2023-04-23T03:16:22.383Z,13.40
2023-04-23T03:18:52.376Z,14.13
2023-04-23T03:21:20.740Z,14.47
2023-04-23T03:23:55.093Z,13.43
2023-04-23T03:26:25.353Z,12.93
2023-04-23T03:28:53.291Z,12.20
2023-04-23T03:31:20.373Z,12.77
2023-04-23T03:33:50.567Z,12.27
2023-04-23T03:36:19.501Z,13.07
2023-04-23T03:38:46.470Z,12.23
2023-04-23T03:41:15.512Z,12.90
2023-04-23T03:43:44.511Z,12.53
2023-04-23T03:46:12.498Z,12.17
2023-04-23T03:48:39.524Z,12.20
2023-04-23T03:51:06.622Z,12.13
2023-04-23T03:53:35.683Z,12.20
2023-04-23T03:56:03.882Z,12.30
2023-04-23T03:58:31.866Z,13.20
2023-04-23T04:01:01.938Z,11.97
2023-04-23T04:03:52.003Z,12.57
2023-04-23T04:06:19.049Z,12.03
2023-04-23T04:08:47.996Z,12.23
2023-04-23T04:11:16.102Z,11.30
2023-04-23T04:13:49.148Z,11.07
2023-04-23T04:16:16.295Z,11.20
2023-04-23T04:18:44.369Z,10.83
2023-04-23T04:21:16.083Z,11.00
2023-04-23T04:23:43.825Z,11.63
2023-04-23T04:26:13.254Z,11.53
2023-04-23T04:28:43.218Z,10.53
2023-04-23T04:31:11.283Z,9.87
2023-04-23T04:33:39.924Z,10.63
2023-04-23T04:36:13.717Z,9.77
2023-04-23T04:38:41.907Z,9.93
2023-04-23T04:41:11.537Z,9.90
2023-04-23T04:43:39.065Z,9.03
2023-04-23T04:46:07.484Z,9.03
2023-04-23T04:48:36.717Z,9.60
2023-04-23T04:51:07.061Z,8.67
2023-04-23T04:53:37.167Z,9.17
2023-04-23T04:56:04.243Z,9.17
2023-04-23T04:58:34.433Z,9.23
2023-04-23T05:01:05.597Z,9.00
2023-04-23T05:03:37.307Z,8.73
2023-04-23T05:06:04.639Z,7.80
2023-04-23T05:08:39.777Z,7.80
2023-04-23T05:11:10.030Z,8.53
2023-04-23T05:13:40.818Z,7.50
2023-04-23T05:16:08.483Z,7.60
2023-04-23T05:18:35.557Z,8.13
2023-04-23T05:21:03.850Z,7.93
2023-04-23T05:23:31.974Z,7.37
2023-04-23T05:26:05.076Z,7.27
2023-04-23T05:28:33.436Z,8.00
2023-04-23T05:31:02.430Z,7.00
2023-04-23T05:33:36.444Z,6.10
2023-04-23T05:36:09.811Z,6.00
2023-04-23T05:38:36.914Z,6.83
2023-04-23T05:41:04.460Z,6.97
2023-04-23T05:43:34.616Z,6.63
2023-04-23T05:46:06.587Z,7.07
2023-04-23T05:48:34.232Z,7.13
2023-04-23T05:51:02.384Z,6.80
2023-04-23T05:53:32.726Z,7.27
2023-04-23T05:56:02.848Z,6.77
2023-04-23T05:58:32.890Z,7.17
2023-04-23T06:00:59.919Z,7.07
2023-04-23T06:03:29.027Z,6.57
2023-04-23T06:05:56.295Z,6.13
2023-04-23T06:08:26.417Z,6.07
2023-04-23T06:10:56.065Z,5.43
2023-04-23T06:13:25.120Z,6.07
2023-04-23T06:15:52.120Z,4.83
2023-04-23T06:18:25.184Z,4.90
2023-04-23T06:20:54.252Z,4.57
2023-04-23T06:23:21.283Z,4.30
2023-04-23T06:25:48.224Z,3.90
2023-04-23T06:28:16.198Z,4.70
2023-04-23T06:30:45.512Z,4.37
2023-04-23T06:33:14.542Z,4.80
2023-04-23T06:35:41.637Z,4.17
2023-04-23T06:38:08.595Z,4.30
2023-04-23T06:40:35.786Z,4.57
2023-04-23T06:43:04.710Z,4.20
2023-04-23T06:45:34.179Z,4.13
2023-04-23T06:48:02.158Z,3.80
2023-04-23T06:50:31.149Z,3.50
2023-04-23T06:52:59.391Z,3.23
2023-04-23T06:55:29.024Z,3.27
2023-04-23T06:58:02.199Z,3.30
2023-04-23T07:00:31.661Z,3.07
2023-04-23T07:03:01.846Z,2.80
2023-04-23T07:05:30.898Z,2.93
2023-04-23T07:07:57.987Z,2.90
2023-04-23T07:10:28.080Z,3.40
2023-04-23T07:12:55.330Z,3.03
2023-04-23T07:15:25.660Z,2.80
2023-04-23T07:17:53.708Z,2.73
2023-04-23T07:20:20.769Z,2.93
2023-04-23T07:22:51.067Z,2.70
2023-04-23T07:25:22.668Z,2.23
2023-04-23T07:27:54.290Z,3.03
2023-04-23T07:30:22.927Z,3.57
2023-04-23T07:32:51.036Z,2.70
2023-04-23T07:35:19.246Z,2.50
2023-04-23T07:37:47.350Z,2.60
2023-04-23T07:40:16.291Z,2.87
2023-04-23T07:42:43.889Z,2.27
2023-04-23T07:45:11.899Z,2.63
2023-04-23T07:47:40.036Z,2.53
2023-04-23T07:50:07.967Z,2.90
2023-04-23T07:52:34.935Z,3.00
2023-04-23T07:55:02.693Z,2.83
2023-04-23T07:57:29.956Z,2.50
2023-04-23T07:59:57.111Z,2.57
2023-04-23T08:02:26.522Z,2.73
2023-04-23T08:04:57.040Z,2.40
2023-04-23T08:07:26.233Z,2.27
2023-04-23T08:09:53.275Z,2.43
2023-04-23T08:12:20.742Z,2.60
2023-04-23T08:14:51.048Z,2.00
2023-04-23T08:17:21.363Z,3.50
2023-04-23T08:19:48.445Z,2.53
2023-04-23T08:22:16.397Z,2.40
2023-04-23T08:24:44.664Z,2.33
2023-04-23T08:27:14.891Z,2.80
2023-04-23T08:29:45.049Z,2.33
2023-04-23T08:32:16.198Z,2.87
2023-04-23T08:34:46.266Z,2.23
2023-04-23T08:37:27.183Z,2.67
2023-04-23T08:39:57.662Z,3.20
2023-04-23T08:42:45.226Z,2.10
2023-04-23T08:45:14.582Z,2.40
2023-04-23T08:47:43.995Z,2.63
2023-04-23T08:50:18.703Z,2.70
2023-04-23T08:52:58.279Z,2.87
2023-04-23T08:55:26.487Z,3.03
2023-04-23T08:58:12.689Z,2.00
2023-04-23T09:00:42.048Z,2.53
2023-04-23T09:03:17.541Z,3.00
2023-04-23T09:05:45.841Z,2.33
2023-04-23T09:08:16.534Z,2.37
2023-04-23T09:10:46.536Z,2.53
2023-04-23T09:13:14.386Z,2.73
2023-04-23T09:15:46.162Z,3.27
2023-04-23T09:18:13.144Z,3.20
2023-04-23T09:20:43.992Z,2.80
2023-04-23T09:23:14.863Z,3.13
2023-04-23T09:25:41.995Z,3.33
2023-04-23T09:28:11.074Z,2.97
2023-04-23T09:30:50.205Z,3.30
2023-04-23T09:33:17.745Z,4.00
2023-04-23T09:35:48.829Z,3.00
2023-04-23T09:38:19.978Z,2.67
2023-04-23T09:40:51.159Z,2.87
2023-04-23T09:43:18.240Z,2.90
2023-04-23T09:45:50.512Z,3.07
2023-04-23T09:48:17.717Z,3.10
2023-04-23T09:50:47.957Z,2.60
2023-04-23T09:53:17.256Z,3.30
2023-04-23T09:55:45.764Z,3.07
2023-04-23T09:58:15.678Z,3.17
2023-04-23T10:00:44.006Z,3.23
2023-04-23T10:03:12.486Z,3.50
2023-04-23T10:08:23.208Z,4.10
2023-04-23T10:11:05.932Z,3.50
2023-04-23T10:13:40.309Z,3.70
2023-04-23T10:16:22.373Z,3.20
2023-04-23T10:18:54.207Z,3.03
2023-04-23T10:21:39.344Z,3.13
2023-04-23T10:24:15.168Z,2.27
2023-04-23T10:26:43.199Z,2.17
2023-04-23T10:29:15.268Z,2.37
2023-04-23T10:31:46.130Z,2.00
2023-04-23T10:34:13.521Z,3.10
2023-04-23T10:36:41.667Z,3.50
2023-04-23T10:39:10.632Z,3.23
2023-04-23T10:41:41.197Z,2.70
2023-04-23T10:44:15.959Z,2.77
2023-04-23T10:47:00.822Z,2.60
2023-04-23T10:49:32.305Z,2.67
2023-04-23T10:52:18.918Z,2.27
2023-04-23T10:54:59.742Z,2.63
2023-04-23T10:57:28.190Z,2.00
2023-04-23T10:59:57.112Z,2.20
2023-04-23T11:02:25.758Z,2.13
2023-04-23T11:04:58.357Z,1.70
2023-04-23T11:07:32.912Z,1.90
2023-04-23T11:10:10.953Z,1.77
2023-04-23T11:12:40.072Z,1.70
2023-04-23T11:15:19.065Z,1.70
2023-04-23T11:17:48.781Z,1.57
2023-04-23T11:20:23.983Z,1.73
2023-04-23T11:22:53.396Z,2.17
2023-04-23T11:25:26.374Z,1.60
2023-04-23T11:27:55.099Z,2.00
2023-04-23T11:30:27.641Z,1.70
2023-04-23T11:32:56.776Z,2.50
2023-04-23T11:35:30.449Z,2.07
2023-04-23T11:37:57.751Z,2.23
2023-04-23T11:40:24.882Z,1.90
2023-04-23T11:42:57.818Z,1.70
2023-04-23T11:45:29.825Z,2.33
2023-04-23T11:47:58.515Z,2.37
2023-04-23T11:50:33.768Z,2.40
2023-04-23T11:53:11.506Z,2.10
2023-04-23T11:55:39.040Z,2.03
2023-04-23T11:58:06.266Z,1.80
2023-04-23T12:00:34.241Z,1.83
2023-04-23T12:03:04.762Z,1.37
2023-04-23T12:05:40.605Z,1.63
2023-04-23T12:08:11.634Z,1.50
2023-04-23T12:10:53.177Z,1.80
2023-04-23T12:13:32.195Z,1.60
2023-04-23T12:16:05.411Z,1.33
2023-04-23T12:18:42.544Z,1.40
2023-04-23T12:21:13.931Z,0.73
2023-04-23T12:23:45.065Z,0.80
2023-04-23T12:26:16.443Z,0.93
2023-04-23T12:28:59.276Z,0.80
2023-04-23T12:31:28.266Z,0.83
2023-04-23T12:34:09.619Z,0.77
2023-04-23T12:36:38.643Z,0.60
2023-04-23T12:39:26.131Z,0.70
2023-04-23T12:42:07.012Z,0.80
2023-04-23T12:44:37.853Z,0.80
2023-04-23T12:47:09.546Z,0.90
2023-04-23T12:49:41.381Z,0.90
2023-04-23T12:52:13.360Z,1.20
2023-04-23T12:54:44.992Z,1.00
2023-04-23T12:57:14.505Z,0.90
2023-04-23T12:59:44.827Z,1.07
2023-04-23T13:02:12.258Z,1.23
2023-04-23T13:04:42.498Z,1.30
2023-04-23T13:07:15.578Z,1.13
2023-04-23T13:09:43.030Z,1.00
2023-04-23T13:12:10.708Z,1.23
2023-04-23T13:14:40.727Z,1.00
2023-04-23T13:17:08.883Z,1.47
2023-04-23T13:19:39.875Z,1.50
2023-04-23T13:22:10.318Z,1.00
2023-04-23T13:24:39.361Z,1.30
2023-04-23T13:27:06.445Z,1.17
2023-04-23T13:29:33.665Z,1.00
2023-04-23T13:32:01.121Z,1.10
2023-04-23T13:34:28.201Z,1.40
2023-04-23T13:36:55.184Z,1.43
2023-04-23T13:39:23.769Z,1.37
2023-04-23T13:42:02.746Z,1.43
2023-04-23T13:44:36.613Z,1.17
2023-04-23T13:47:04.251Z,1.00
2023-04-23T13:49:31.528Z,0.90
2023-04-23T13:52:01.160Z,0.80
2023-04-23T13:54:31.688Z,0.90
2023-04-23T13:57:01.426Z,0.70
2023-04-23T13:59:31.539Z,0.90
2023-04-23T14:02:01.762Z,0.87
2023-04-23T14:04:29.961Z,0.70
2023-04-23T14:06:58.126Z,0.97
2023-04-23T14:09:26.712Z,0.90
2023-04-23T14:11:56.661Z,0.90
2023-04-23T14:14:25.731Z,1.13
2023-04-23T14:16:52.925Z,0.90
2023-04-23T14:19:24.959Z,1.00
2023-04-23T14:21:55.683Z,1.00
2023-04-23T14:24:35.752Z,1.03
2023-04-23T14:27:06.165Z,1.10
2023-04-23T14:29:40.597Z,0.80
2023-04-23T14:32:11.224Z,1.20
2023-04-23T14:34:38.772Z,1.00
2023-04-23T14:37:08.019Z,1.20
2023-04-23T14:39:35.133Z,1.10
2023-04-23T14:42:05.655Z,1.30
2023-04-23T14:44:34.747Z,0.70
2023-04-23T14:47:02.885Z,1.20
2023-04-23T14:49:30.164Z,1.10
2023-04-23T14:52:00.992Z,1.30
2023-04-23T14:54:29.060Z,1.90
2023-04-23T14:56:56.605Z,1.70
2023-04-23T14:59:24.030Z,1.43
2023-04-23T15:01:51.413Z,1.50
2023-04-23T15:04:19.524Z,1.50
2023-04-23T15:06:46.599Z,1.30
2023-04-23T15:09:14.014Z,1.47
2023-04-23T15:11:43.353Z,1.57
2023-04-23T15:14:33.047Z,1.10
2023-04-23T15:17:00.408Z,1.43
2023-04-23T15:19:28.156Z,1.50
2023-04-23T15:21:55.477Z,1.83
2023-04-23T15:24:23.630Z,1.30
2023-04-23T15:26:53.412Z,1.53
2023-04-23T15:29:21.827Z,1.13
2023-04-23T15:31:49.626Z,1.90
2023-04-23T15:34:16.753Z,1.50
2023-04-23T15:36:45.868Z,1.50
2023-04-23T15:39:12.933Z,1.50
2023-04-23T15:41:44.836Z,1.57
2023-04-23T15:44:15.223Z,1.53
2023-04-23T15:46:42.278Z,1.60
2023-04-23T15:49:10.544Z,1.60
2023-04-23T15:51:38.709Z,1.57
2023-04-23T15:54:08.976Z,1.80
2023-04-23T15:56:39.211Z,1.53
2023-04-23T15:59:09.296Z,1.87
2023-04-23T16:01:37.750Z,1.90
2023-04-23T16:04:11.268Z,2.20
2023-04-23T16:06:39.348Z,1.90
2023-04-23T16:09:09.454Z,1.67
2023-04-23T16:11:37.951Z,1.77
2023-04-23T16:14:09.676Z,2.23
2023-04-23T16:16:38.294Z,2.67
2023-04-23T16:19:06.547Z,2.70
2023-04-23T16:21:34.547Z,2.77
2023-04-23T16:24:04.916Z,4.03
2023-04-23T16:26:33.214Z,3.63
2023-04-23T16:31:33.560Z,4.43
2023-04-23T16:34:00.704Z,3.50
2023-04-23T16:36:29.931Z,2.97
2023-04-23T16:38:57.585Z,3.13
2023-04-23T16:41:24.669Z,3.10
2023-04-23T16:43:51.624Z,3.10
2023-04-23T16:46:18.916Z,3.07
2023-04-23T16:48:52.291Z,2.80
2023-04-23T16:51:22.344Z,2.70
2023-04-23T16:53:52.818Z,2.50
2023-04-23T16:56:22.790Z,2.60
2023-04-23T16:58:50.916Z,2.80
2023-04-23T17:01:20.007Z,2.47
2023-04-23T17:03:48.247Z,2.53
2023-04-23T17:06:34.190Z,2.60
2023-04-23T17:09:09.219Z,2.80
2023-04-23T17:11:37.208Z,2.83
2023-04-23T17:14:04.210Z,2.40
2023-04-23T17:16:31.415Z,2.37
2023-04-23T17:18:59.486Z,2.60
2023-04-23T17:21:28.638Z,2.77
2023-04-23T17:23:56.842Z,2.80
2023-04-23T17:26:23.793Z,2.93
2023-04-23T17:28:52.813Z,2.70
2023-04-23T17:31:19.863Z,2.40
2023-04-23T17:33:49.460Z,4.20
2023-04-23T17:36:17.366Z,3.10
2023-04-23T17:38:47.471Z,2.23
2023-04-23T17:41:14.607Z,2.43
2023-04-23T17:43:41.655Z,3.00
2023-04-23T17:46:11.767Z,2.33
2023-04-23T17:48:42.020Z,2.70
2023-04-23T17:51:12.241Z,2.63
2023-04-23T17:53:42.209Z,2.03
2023-04-23T17:56:12.380Z,2.20
2023-04-23T17:58:42.493Z,2.83
2023-04-23T18:01:10.849Z,1.73
2023-04-23T18:03:41.240Z,1.47
2023-04-23T18:06:11.385Z,2.40
2023-04-23T18:08:42.591Z,3.00
2023-04-23T18:11:10.992Z,2.90
2023-04-23T18:13:39.067Z,2.97
2023-04-23T18:16:09.184Z,2.47
2023-04-23T18:18:36.395Z,2.93
2023-04-23T18:21:05.223Z,2.73
2023-04-23T18:23:36.037Z,2.20
2023-04-23T18:26:05.875Z,1.73
2023-04-23T18:28:37.202Z,2.07
2023-04-23T18:31:07.380Z,2.20
2023-04-23T18:33:47.928Z,1.67
2023-04-23T18:36:26.992Z,1.80
2023-04-23T18:38:56.607Z,8.10
2023-04-23T18:41:25.748Z,4.17
2023-04-23T18:43:52.771Z,2.10
2023-04-23T18:46:23.393Z,1.63
2023-04-23T18:49:18.122Z,2.07
2023-04-23T18:51:50.092Z,1.90
2023-04-23T18:54:17.912Z,2.73
2023-04-23T18:56:48.348Z,2.60
2023-04-23T18:59:19.732Z,2.70
2023-04-23T19:01:50.186Z,2.67
2023-04-23T19:04:19.492Z,2.60
2023-04-23T19:06:46.677Z,2.50
2023-04-23T19:09:14.688Z,2.30
2023-04-23T19:11:41.731Z,2.33
2023-04-23T19:14:11.874Z,2.10
2023-04-23T19:16:39.016Z,2.20
2023-04-23T19:19:09.296Z,1.40
2023-04-23T19:21:39.336Z,1.57
2023-04-23T19:24:06.547Z,1.20
2023-04-23T19:26:36.639Z,1.13
2023-04-23T19:29:06.731Z,1.10
2023-04-23T19:31:39.838Z,1.20
2023-04-23T19:34:10.023Z,1.70
2023-04-23T19:36:37.386Z,1.20
2023-04-23T19:39:04.748Z,1.00
2023-04-23T19:41:34.833Z,1.00
2023-04-23T19:44:02.825Z,1.20
2023-04-23T19:46:29.905Z,1.73
2023-04-23T19:48:57.939Z,1.40
2023-04-23T19:51:29.157Z,1.47
2023-04-23T19:53:59.094Z,1.97
2023-04-23T19:56:28.094Z,1.20
2023-04-23T19:58:55.428Z,1.83
2023-04-23T20:01:25.398Z,2.70
2023-04-23T20:03:53.802Z,3.10
2023-04-23T20:06:22.274Z,2.30
2023-04-23T20:09:18.198Z,1.50
2023-04-23T20:11:46.330Z,1.00
2023-04-23T20:14:14.392Z,1.63
2023-04-23T20:16:42.128Z,1.30
2023-04-23T20:19:12.334Z,1.53
2023-04-23T20:21:40.043Z,1.60
2023-04-23T20:24:08.264Z,1.93
2023-04-23T20:26:39.716Z,1.20
2023-04-23T20:29:08.948Z,1.00
2023-04-23T20:31:37.309Z,0.90
2023-04-23T20:34:06.957Z,1.50
2023-04-23T20:36:39.034Z,1.47
2023-04-23T20:39:06.060Z,1.00
2023-04-23T20:41:36.900Z,1.63
2023-04-23T20:44:07.622Z,1.40
2023-04-23T20:46:36.997Z,1.50
2023-04-23T20:49:06.470Z,1.50
2023-04-23T20:51:34.328Z,1.40
2023-04-23T20:54:04.885Z,1.40
2023-04-23T20:56:32.875Z,1.10
2023-04-23T20:59:03.651Z,1.63
2023-04-23T21:01:30.804Z,1.30
2023-04-23T21:04:00.484Z,1.83
2023-04-23T21:06:29.244Z,1.53
2023-04-23T21:08:57.522Z,2.10
2023-04-23T21:11:27.878Z,1.40
2023-04-23T21:14:01.668Z,1.53
2023-04-23T21:16:36.899Z,1.60
2023-04-23T21:19:05.094Z,1.70
2023-04-23T21:21:32.601Z,1.80
2023-04-23T21:24:02.645Z,1.67
2023-04-23T21:26:31.312Z,1.60
2023-04-23T21:29:01.365Z,1.70
2023-04-23T21:31:37.840Z,2.03
2023-04-23T21:34:04.924Z,1.80
2023-04-23T21:36:32.960Z,1.87
2023-04-23T21:39:02.317Z,2.13
2023-04-23T21:41:31.357Z,2.23
2023-04-23T21:43:59.500Z,2.33
2023-04-23T21:46:26.873Z,1.90
2023-04-23T21:48:54.047Z,2.50
2023-04-23T21:51:23.092Z,2.03
2023-04-23T21:53:53.340Z,2.20
2023-04-23T21:56:22.454Z,2.00
2023-04-23T21:58:52.419Z,2.50
2023-04-23T22:01:20.620Z,2.50
2023-04-23T22:03:48.901Z,3.03
2023-04-23T22:06:23.344Z,2.80
2023-04-23T22:08:54.656Z,2.73
2023-04-23T22:11:22.755Z,2.27
2023-04-23T22:13:49.850Z,2.67
2023-04-23T22:16:27.448Z,2.50
2023-04-23T22:18:59.369Z,2.73
2023-04-23T22:21:28.426Z,3.67
2023-04-23T22:23:58.459Z,3.13
2023-04-23T22:26:28.545Z,3.70
2023-04-23T22:28:55.763Z,3.83
2023-04-23T22:31:23.049Z,4.53
2023-04-23T22:33:52.202Z,3.97
2023-04-23T22:36:19.207Z,4.67
2023-04-23T22:38:49.239Z,3.97
2023-04-23T22:41:16.212Z,4.53
2023-04-23T22:43:46.505Z,4.50
2023-04-23T22:46:15.703Z,4.10
2023-04-23T22:48:48.926Z,4.07
2023-04-23T22:51:15.968Z,4.10
2023-04-23T22:53:42.986Z,5.00
2023-04-23T22:56:10.074Z,4.77
2023-04-23T22:58:37.665Z,3.63
2023-04-23T23:01:04.791Z,2.10
2023-04-23T23:03:33.045Z,2.70
2023-04-23T23:05:59.993Z,3.30
2023-04-23T23:08:29.939Z,3.43
2023-04-23T23:11:00.138Z,2.93
2023-04-23T23:13:29.218Z,2.80
2023-04-23T23:16:00.694Z,3.00
2023-04-23T23:18:31.406Z,3.80
2023-04-23T23:20:58.650Z,3.67
2023-04-23T23:23:28.835Z,3.77
2023-04-23T23:25:59.948Z,4.07
2023-04-23T23:28:30.608Z,4.37
2023-04-23T23:31:01.444Z,4.37
2023-04-23T23:33:29.050Z,4.53
2023-04-23T23:35:59.252Z,4.90
2023-04-23T23:38:27.257Z,6.37
2023-04-23T23:40:56.149Z,4.50
2023-04-23T23:43:29.220Z,2.70
2023-04-23T23:45:56.339Z,2.30
2023-04-23T23:48:26.801Z,2.50
2023-04-23T23:50:56.812Z,2.13
2023-04-23T23:53:24.191Z,2.10
2023-04-23T23:55:52.244Z,1.10
2023-04-23T23:58:22.005Z,0.63
